Minaki, Canada
Current Conditions -  °F | °C
As of 12:00 PM on Thursday 18 Dec 2014 (Local Time) from CYQK Reporting Station
Scattered Clouds Scattered Clouds  
Wind Chill:   Ceiling: Unl
Heat Index: 12°   Visibility: 15mi
Dew Point:   Wind: 8mph
Humidity: 79%   Direction: 150°SSE
Pressure: 30.23"   Gusts: NA
Location:  49.99°N, 94.67°W
Report Text: CYQK 181800Z 15007KT 15SM SCT230 M11/M14 A3023 RMK CI4 SLP271
Loading
Personal Weather Stations






























Interactive Weather Map New forecast layout! Learn more

10-Day Weather Forecast

Advertisements
Track Severe Weather on mobile